createdAt,value
2022-12-31T00:01:23.205Z,7.41
2022-12-31T00:03:50.456Z,7.63
2022-12-31T00:06:20.955Z,7.51
2022-12-31T00:08:48.510Z,7.44
2022-12-31T00:11:17.076Z,7.62
2022-12-31T00:13:45.798Z,7.51
2022-12-31T00:16:15.344Z,7.43
2022-12-31T00:18:44.249Z,7.40
2022-12-31T00:21:10.883Z,7.50
2022-12-31T00:23:37.736Z,7.66
2022-12-31T00:26:05.584Z,7.76
2022-12-31T00:28:34.044Z,7.43
2022-12-31T00:31:06.094Z,7.37
2022-12-31T00:33:32.707Z,7.57
2022-12-31T00:36:05.336Z,7.71
2022-12-31T00:38:31.942Z,7.43
2022-12-31T00:40:58.439Z,7.59
2022-12-31T00:43:24.948Z,7.47
2022-12-31T00:45:52.802Z,7.72
2022-12-31T00:48:19.318Z,7.69
2022-12-31T00:50:45.985Z,7.41
2022-12-31T00:53:12.573Z,7.56
2022-12-31T00:55:39.066Z,7.56
2022-12-31T00:58:05.619Z,7.52
2022-12-31T01:00:32.190Z,7.39
2022-12-31T01:03:01.585Z,7.45
2022-12-31T01:05:29.557Z,7.43
2022-12-31T01:07:56.112Z,7.44
2022-12-31T01:10:41.534Z,7.37
2022-12-31T01:13:09.284Z,7.38
2022-12-31T01:15:36.980Z,7.41
2022-12-31T01:18:06.375Z,7.59
2022-12-31T01:20:36.668Z,7.47
2022-12-31T01:23:03.301Z,7.42
2022-12-31T01:25:29.863Z,7.38
2022-12-31T01:27:56.413Z,7.64
2022-12-31T01:30:22.968Z,7.44
2022-12-31T01:32:49.527Z,7.90
2022-12-31T01:35:17.428Z,8.28
2022-12-31T01:37:43.994Z,7.78
2022-12-31T01:40:11.269Z,7.63
2022-12-31T01:42:37.832Z,7.51
2022-12-31T01:45:10.915Z,7.93
2022-12-31T01:47:42.019Z,7.59
2022-12-31T01:50:15.172Z,7.67
2022-12-31T01:52:46.145Z,7.89
2022-12-31T01:55:17.415Z,8.22
2022-12-31T01:57:45.659Z,7.67
2022-12-31T02:00:12.851Z,8.47
2022-12-31T02:02:39.564Z,7.68
2022-12-31T02:05:15.797Z,7.73
2022-12-31T02:07:44.591Z,9.58
2022-12-31T02:10:11.322Z,8.77
2022-12-31T02:12:37.966Z,8.87
2022-12-31T02:15:05.699Z,8.95
2022-12-31T02:17:38.177Z,9.57
2022-12-31T02:20:35.154Z,10.03
2022-12-31T02:23:23.437Z,8.67
2022-12-31T02:26:16.746Z,9.32
2022-12-31T02:29:15.552Z,9.84
2022-12-31T02:31:47.213Z,10.33
2022-12-31T02:34:19.217Z,9.85
2022-12-31T02:36:50.494Z,11.64
2022-12-31T02:39:17.277Z,10.13
2022-12-31T02:41:50.522Z,10.15
2022-12-31T02:44:24.842Z,11.38
2022-12-31T02:47:02.037Z,9.33
2022-12-31T02:49:40.252Z,8.45
2022-12-31T02:52:15.427Z,9.48
2022-12-31T02:54:48.428Z,9.61
2022-12-31T02:57:23.402Z,11.62
2022-12-31T03:00:12.012Z,11.32
2022-12-31T03:02:41.874Z,9.18
2022-12-31T03:05:09.936Z,10.02
2022-12-31T03:07:36.474Z,10.23
2022-12-31T03:10:03.298Z,9.63
2022-12-31T03:12:48.133Z,9.96
2022-12-31T03:15:21.774Z,9.91
2022-12-31T03:17:52.817Z,9.59
2022-12-31T03:20:39.432Z,9.78
2022-12-31T03:23:09.454Z,9.15
2022-12-31T03:25:36.228Z,10.82
2022-12-31T03:28:04.633Z,11.49
2022-12-31T03:30:32.139Z,9.92
2022-12-31T03:33:00.874Z,9.83
2022-12-31T03:35:29.505Z,9.76
2022-12-31T03:37:56.684Z,10.93
2022-12-31T03:40:26.190Z,9.35
2022-12-31T03:42:53.008Z,10.74
2022-12-31T03:45:20.021Z,11.72
2022-12-31T03:47:46.905Z,10.88
2022-12-31T03:50:16.889Z,11.41
2022-12-31T03:52:43.501Z,11.13
2022-12-31T03:55:11.144Z,9.42
2022-12-31T03:57:38.293Z,12.25
2022-12-31T04:00:07.315Z,11.11
2022-12-31T04:02:33.945Z,11.40
2022-12-31T04:05:00.660Z,10.31
2022-12-31T04:07:28.515Z,9.38
2022-12-31T04:09:55.083Z,9.62
2022-12-31T04:12:21.624Z,8.87
2022-12-31T04:14:48.143Z,8.79
2022-12-31T04:17:14.641Z,10.46
2022-12-31T04:19:41.144Z,9.46
2022-12-31T04:22:07.714Z,10.09
2022-12-31T04:24:35.564Z,10.29
2022-12-31T04:27:07.222Z,10.26
2022-12-31T04:29:34.044Z,9.65
2022-12-31T04:32:00.721Z,9.85
2022-12-31T04:34:27.379Z,9.62
2022-12-31T04:36:53.912Z,9.57
2022-12-31T04:39:20.431Z,9.77
2022-12-31T04:41:48.312Z,9.83
2022-12-31T04:44:14.892Z,9.82
2022-12-31T04:46:41.432Z,9.24
2022-12-31T04:49:08.287Z,9.07
2022-12-31T04:51:34.858Z,9.36
2022-12-31T04:54:01.937Z,8.80
2022-12-31T04:56:28.980Z,8.89
2022-12-31T04:58:56.928Z,9.14
2022-12-31T05:01:24.075Z,9.20
2022-12-31T05:03:51.300Z,9.89
2022-12-31T05:06:20.041Z,8.94
2022-12-31T05:08:46.737Z,8.65
2022-12-31T05:11:13.471Z,8.95
2022-12-31T05:13:40.116Z,9.08
2022-12-31T05:16:08.868Z,8.80
2022-12-31T05:18:35.795Z,8.79
2022-12-31T05:21:02.476Z,8.68
2022-12-31T05:23:29.410Z,8.57
2022-12-31T05:25:56.048Z,8.47
2022-12-31T05:28:22.719Z,9.34
2022-12-31T05:30:50.305Z,8.87
2022-12-31T05:33:18.829Z,8.81
2022-12-31T05:35:45.852Z,9.49
2022-12-31T05:38:12.427Z,8.97
2022-12-31T05:40:39.051Z,8.62
2022-12-31T05:43:05.669Z,8.48
2022-12-31T05:45:32.223Z,9.18
2022-12-31T05:47:59.010Z,9.12
2022-12-31T05:50:26.993Z,8.97
2022-12-31T05:52:53.598Z,8.52
2022-12-31T05:55:20.208Z,8.65
2022-12-31T05:57:46.767Z,8.76
2022-12-31T06:00:14.834Z,8.45
2022-12-31T06:02:41.483Z,8.68
2022-12-31T06:05:09.014Z,8.53
2022-12-31T06:07:36.923Z,8.43
2022-12-31T06:10:04.420Z,8.43
2022-12-31T06:12:30.940Z,8.76
2022-12-31T06:14:57.451Z,8.48
2022-12-31T06:17:24.511Z,8.50
2022-12-31T06:19:51.020Z,8.57
2022-12-31T06:22:17.579Z,8.49
2022-12-31T06:24:45.568Z,8.50
2022-12-31T06:27:12.662Z,8.02
2022-12-31T06:29:39.232Z,8.33
2022-12-31T06:32:06.290Z,8.41
2022-12-31T06:34:32.825Z,8.42
2022-12-31T06:36:59.632Z,8.36
2022-12-31T06:39:26.396Z,8.32
2022-12-31T06:41:54.264Z,8.27
2022-12-31T06:44:22.406Z,8.31
2022-12-31T06:46:49.803Z,8.28
2022-12-31T06:49:16.471Z,8.22
2022-12-31T06:51:45.872Z,8.91
2022-12-31T06:54:13.219Z,8.87
2022-12-31T06:56:40.929Z,8.53
2022-12-31T06:59:22.084Z,8.49
2022-12-31T07:01:55.607Z,8.41
2022-12-31T07:04:41.389Z,9.01
2022-12-31T07:07:17.112Z,9.01
2022-12-31T07:09:54.882Z,8.62
2022-12-31T07:12:35.894Z,8.37
2022-12-31T07:15:09.153Z,8.30
2022-12-31T07:17:42.672Z,8.34
2022-12-31T07:20:12.137Z,8.31
2022-12-31T07:22:39.953Z,8.53
2022-12-31T07:25:07.786Z,8.32
2022-12-31T07:27:44.345Z,8.37
2022-12-31T07:30:15.874Z,8.49
2022-12-31T07:33:02.271Z,8.42
2022-12-31T07:35:37.740Z,8.44
2022-12-31T07:38:14.888Z,8.27
2022-12-31T07:40:57.519Z,8.36
2022-12-31T07:43:32.015Z,8.30
2022-12-31T07:46:07.217Z,8.34
2022-12-31T07:48:34.194Z,8.32
2022-12-31T07:51:01.258Z,8.40
2022-12-31T07:53:28.623Z,8.53
2022-12-31T07:55:58.217Z,8.40
2022-12-31T07:58:32.231Z,8.35
2022-12-31T08:01:01.775Z,8.57
2022-12-31T08:03:45.897Z,8.39
2022-12-31T08:06:19.271Z,8.41
2022-12-31T08:08:51.700Z,8.38
2022-12-31T08:11:25.948Z,8.41
2022-12-31T08:13:54.324Z,8.55
2022-12-31T08:16:22.758Z,8.28
2022-12-31T08:18:49.894Z,8.58
2022-12-31T08:21:32.781Z,8.73
2022-12-31T08:24:10.800Z,8.51
2022-12-31T08:26:40.812Z,8.47
2022-12-31T08:29:26.074Z,8.64
2022-12-31T08:32:01.301Z,8.28
2022-12-31T08:34:35.252Z,8.26
2022-12-31T08:37:08.191Z,8.23
2022-12-31T08:40:01.893Z,8.44
2022-12-31T08:42:39.904Z,9.06
2022-12-31T08:45:17.050Z,8.71
2022-12-31T08:47:57.975Z,9.51
2022-12-31T08:50:27.096Z,9.96
2022-12-31T08:52:54.738Z,9.77
2022-12-31T08:55:21.744Z,9.54
2022-12-31T08:57:56.345Z,10.69
2022-12-31T09:00:23.773Z,11.00
2022-12-31T09:03:10.860Z,11.29
2022-12-31T09:05:53.075Z,11.75
2022-12-31T09:08:28.921Z,11.62
2022-12-31T09:11:00.895Z,11.53
2022-12-31T09:13:37.280Z,12.08
2022-12-31T09:16:13.400Z,10.58
2022-12-31T09:18:42.555Z,9.38
2022-12-31T09:21:10.351Z,9.31
2022-12-31T09:23:37.580Z,11.27
2022-12-31T09:26:21.500Z,9.45
2022-12-31T09:29:00.837Z,10.97
2022-12-31T09:31:33.380Z,11.62
2022-12-31T09:34:06.820Z,10.54
2022-12-31T09:36:39.304Z,10.23
2022-12-31T09:39:12.738Z,11.78
2022-12-31T09:42:04.598Z,12.06
2022-12-31T09:45:16.756Z,9.93
2022-12-31T09:48:12.951Z,12.32
2022-12-31T09:50:52.663Z,11.80
2022-12-31T09:53:35.490Z,12.80
2022-12-31T09:56:10.842Z,12.83
2022-12-31T09:58:44.024Z,12.90
2022-12-31T10:01:26.589Z,13.72
2022-12-31T10:04:11.649Z,12.05
2022-12-31T10:06:51.124Z,18.79
2022-12-31T10:09:34.493Z,12.90
2022-12-31T10:12:28.463Z,14.87
2022-12-31T10:15:26.859Z,20.01
2022-12-31T10:18:03.423Z,20.11
2022-12-31T10:20:45.567Z,17.14
2022-12-31T10:23:27.344Z,14.33
2022-12-31T10:26:10.085Z,13.53
2022-12-31T10:28:43.462Z,14.16
2022-12-31T10:31:14.908Z,11.73
2022-12-31T10:33:51.322Z,14.28
2022-12-31T10:36:26.125Z,13.92
2022-12-31T10:39:12.828Z,12.14
2022-12-31T10:42:05.475Z,11.21
2022-12-31T10:45:07.456Z,13.44
2022-12-31T10:48:00.918Z,21.07
2022-12-31T10:51:03.800Z,19.94
2022-12-31T10:54:06.353Z,22.56
2022-12-31T10:57:07.121Z,23.40
2022-12-31T11:00:01.402Z,22.87
2022-12-31T11:03:04.914Z,23.43
2022-12-31T11:06:13.088Z,23.17
2022-12-31T11:09:06.106Z,22.60
2022-12-31T11:11:42.168Z,21.99
2022-12-31T11:14:39.280Z,21.32
2022-12-31T11:17:24.363Z,21.10
2022-12-31T11:20:02.889Z,15.48
2022-12-31T11:22:48.484Z,15.37
2022-12-31T11:25:22.806Z,13.67
2022-12-31T11:28:08.287Z,14.06
2022-12-31T11:30:47.620Z,18.04
2022-12-31T11:33:24.378Z,17.05
2022-12-31T11:36:08.718Z,17.61
2022-12-31T11:38:40.579Z,17.99
2022-12-31T11:41:13.191Z,14.38
2022-12-31T11:43:50.773Z,16.56
2022-12-31T11:46:32.797Z,13.93
2022-12-31T11:49:14.736Z,16.30
2022-12-31T11:52:00.174Z,13.04
2022-12-31T11:54:59.361Z,13.23
2022-12-31T11:57:33.536Z,13.21
2022-12-31T12:00:06.734Z,14.46
2022-12-31T12:02:37.541Z,13.61
2022-12-31T12:05:11.129Z,13.40
2022-12-31T12:07:38.646Z,12.52
2022-12-31T12:10:19.380Z,13.12
2022-12-31T12:12:45.928Z,12.68
2022-12-31T12:15:18.230Z,12.30
2022-12-31T12:17:51.813Z,13.10
2022-12-31T12:20:21.786Z,12.61
2022-12-31T12:22:50.730Z,12.26
2022-12-31T12:25:20.716Z,12.07
2022-12-31T12:27:47.525Z,12.34
2022-12-31T12:30:21.079Z,14.67
2022-12-31T12:32:57.218Z,15.27
2022-12-31T12:35:26.320Z,16.53
2022-12-31T12:38:00.847Z,15.58
2022-12-31T12:40:33.698Z,14.57
2022-12-31T12:43:01.961Z,14.83
2022-12-31T12:45:39.741Z,13.54
2022-12-31T12:48:16.556Z,15.76
2022-12-31T12:50:45.601Z,16.43
2022-12-31T12:53:22.015Z,15.23
2022-12-31T12:56:08.372Z,15.86
2022-12-31T12:58:48.013Z,15.47
2022-12-31T13:01:18.100Z,15.49
2022-12-31T13:07:33.696Z,16.34
2022-12-31T13:10:23.214Z,15.94
2022-12-31T13:15:51.013Z,15.60
2022-12-31T13:18:34.193Z,15.04
2022-12-31T13:21:08.772Z,14.69
2022-12-31T13:23:43.123Z,15.17
2022-12-31T13:26:16.955Z,14.90
2022-12-31T13:28:46.914Z,13.42
2022-12-31T13:31:18.032Z,13.96
2022-12-31T13:33:49.649Z,12.71
2022-12-31T13:36:20.197Z,14.99
2022-12-31T13:38:50.641Z,14.70
2022-12-31T13:41:21.200Z,14.10
2022-12-31T13:43:56.816Z,14.07
2022-12-31T13:46:31.220Z,13.47
2022-12-31T13:49:01.457Z,13.67
2022-12-31T13:51:44.421Z,13.89
2022-12-31T13:54:24.394Z,13.30
2022-12-31T13:56:52.071Z,12.90
2022-12-31T13:59:22.465Z,13.28
2022-12-31T14:01:52.706Z,13.10
2022-12-31T14:04:27.358Z,13.37
2022-12-31T14:07:00.868Z,13.79
2022-12-31T14:09:31.126Z,13.06
2022-12-31T14:12:22.324Z,12.95
2022-12-31T14:14:54.481Z,13.34
2022-12-31T14:17:30.131Z,14.41
2022-12-31T14:20:04.770Z,13.43
2022-12-31T14:22:43.212Z,12.74
2022-12-31T14:25:20.590Z,12.91
2022-12-31T14:27:48.612Z,12.56
2022-12-31T14:30:17.786Z,12.45
2022-12-31T14:32:56.824Z,12.56
2022-12-31T14:35:36.122Z,12.05
2022-12-31T14:38:15.672Z,12.35
2022-12-31T14:40:53.183Z,12.87
2022-12-31T14:43:32.778Z,12.72
2022-12-31T14:46:03.996Z,12.30
2022-12-31T14:48:45.305Z,12.33
2022-12-31T14:51:12.960Z,12.79
2022-12-31T14:53:52.151Z,12.23
2022-12-31T14:56:29.224Z,12.11
2022-12-31T14:58:57.792Z,12.19
2022-12-31T15:01:26.053Z,12.14
2022-12-31T15:03:55.665Z,12.04
2022-12-31T15:06:37.935Z,11.64
2022-12-31T15:09:16.169Z,10.81
2022-12-31T15:12:01.766Z,11.81
2022-12-31T15:14:54.935Z,11.86
2022-12-31T15:17:32.073Z,11.81
2022-12-31T15:20:30.684Z,11.72
2022-12-31T15:22:57.345Z,11.47
2022-12-31T15:25:40.086Z,11.39
2022-12-31T15:28:23.102Z,11.07
2022-12-31T15:30:50.739Z,11.14
2022-12-31T15:33:22.192Z,11.49
2022-12-31T15:35:51.368Z,12.63
2022-12-31T15:38:31.108Z,12.06
2022-12-31T15:40:59.869Z,11.66
2022-12-31T15:43:39.719Z,10.52
2022-12-31T15:46:14.431Z,11.17
2022-12-31T15:48:46.185Z,11.02
2022-12-31T15:51:17.790Z,11.09
2022-12-31T15:53:52.482Z,10.66
2022-12-31T15:56:30.092Z,10.88
2022-12-31T15:58:59.217Z,10.10
2022-12-31T16:01:32.291Z,10.47
2022-12-31T16:04:02.692Z,10.54
2022-12-31T16:06:31.302Z,10.52
2022-12-31T16:08:58.278Z,11.17
2022-12-31T16:11:30.226Z,11.66
2022-12-31T16:13:58.946Z,11.63
2022-12-31T16:16:28.482Z,11.21
2022-12-31T16:18:56.411Z,11.04
2022-12-31T16:21:29.593Z,10.88
2022-12-31T16:23:58.149Z,10.97
2022-12-31T16:26:32.516Z,10.60
2022-12-31T16:29:00.176Z,9.56
2022-12-31T16:31:29.042Z,10.66
2022-12-31T16:34:04.522Z,11.15
2022-12-31T16:36:31.063Z,10.58
2022-12-31T16:39:22.332Z,10.67
2022-12-31T16:41:51.101Z,11.26
2022-12-31T16:44:25.743Z,10.08
2022-12-31T16:46:55.695Z,11.05
2022-12-31T16:49:22.729Z,10.21
2022-12-31T16:51:49.633Z,9.36
2022-12-31T16:54:20.666Z,10.39
2022-12-31T16:56:47.769Z,9.90
2022-12-31T16:59:23.997Z,10.95
2022-12-31T17:01:52.102Z,11.24
2022-12-31T17:04:20.904Z,10.45
2022-12-31T17:06:47.731Z,8.88
2022-12-31T17:09:20.587Z,10.15
2022-12-31T17:11:52.058Z,11.06
2022-12-31T17:14:23.170Z,11.32
2022-12-31T17:17:02.243Z,10.72
2022-12-31T17:19:42.291Z,11.24
2022-12-31T17:22:16.116Z,9.61
2022-12-31T17:24:42.857Z,8.09
2022-12-31T17:27:09.995Z,7.68
2022-12-31T17:29:38.124Z,10.60
2022-12-31T17:32:06.777Z,10.91
2022-12-31T17:34:34.683Z,11.13
2022-12-31T17:37:18.293Z,11.30
2022-12-31T17:39:48.429Z,10.97
2022-12-31T17:42:27.511Z,11.28
2022-12-31T17:44:58.633Z,11.09
2022-12-31T17:47:33.427Z,10.32
2022-12-31T17:50:05.785Z,10.77
2022-12-31T17:52:32.350Z,11.17
2022-12-31T17:54:58.902Z,10.59
2022-12-31T17:57:27.618Z,10.47
2022-12-31T17:59:56.400Z,11.16
2022-12-31T18:02:23.040Z,9.02
2022-12-31T18:04:49.631Z,10.43
2022-12-31T18:07:16.166Z,11.16
2022-12-31T18:09:42.704Z,11.21
2022-12-31T18:12:11.742Z,10.59
2022-12-31T18:14:38.544Z,7.06
2022-12-31T18:17:14.565Z,9.96
2022-12-31T18:20:06.481Z,11.04
2022-12-31T18:22:27.643Z,7.40
2022-12-31T18:24:54.345Z,9.85
2022-12-31T18:27:20.897Z,10.29
2022-12-31T18:29:47.610Z,9.97
2022-12-31T18:32:20.663Z,8.86
2022-12-31T18:34:47.394Z,9.99
2022-12-31T18:37:21.250Z,8.69
2022-12-31T18:39:48.441Z,9.48
2022-12-31T18:42:17.262Z,8.60
2022-12-31T18:44:44.541Z,9.06
2022-12-31T18:47:12.112Z,8.04
2022-12-31T18:49:40.103Z,10.23
2022-12-31T18:52:12.545Z,9.87
2022-12-31T18:54:39.231Z,10.47
2022-12-31T18:57:05.925Z,8.85
2022-12-31T18:59:32.457Z,7.65
2022-12-31T19:01:59.050Z,7.24
2022-12-31T19:04:28.274Z,8.02
2022-12-31T19:06:56.716Z,7.48
2022-12-31T19:09:44.492Z,7.93
2022-12-31T19:12:11.425Z,7.93
2022-12-31T19:14:37.933Z,8.45
2022-12-31T19:19:29.851Z,9.80
2022-12-31T19:21:57.745Z,7.71
2022-12-31T19:24:26.515Z,8.49
2022-12-31T19:26:54.313Z,7.89
2022-12-31T19:29:22.713Z,9.19
2022-12-31T19:31:49.722Z,10.02
2022-12-31T19:34:16.576Z,8.24
2022-12-31T19:36:44.514Z,9.60
2022-12-31T19:39:15.661Z,10.42
2022-12-31T19:41:43.768Z,8.18
2022-12-31T19:44:13.820Z,8.28
2022-12-31T19:46:40.342Z,10.16
2022-12-31T19:49:06.881Z,8.83
2022-12-31T19:51:33.613Z,9.30
2022-12-31T19:54:00.134Z,8.37
2022-12-31T19:56:27.987Z,10.29
2022-12-31T19:58:54.538Z,8.53
2022-12-31T20:01:23.670Z,9.69
2022-12-31T20:03:50.954Z,10.09
2022-12-31T20:06:18.997Z,10.47
2022-12-31T20:08:46.455Z,10.40
2022-12-31T20:11:15.376Z,10.44
2022-12-31T20:13:43.782Z,10.48
2022-12-31T20:16:12.292Z,9.96
2022-12-31T20:18:39.902Z,9.22
2022-12-31T20:21:10.382Z,9.91
2022-12-31T20:23:36.959Z,10.48
2022-12-31T20:26:03.697Z,10.57
2022-12-31T20:28:30.500Z,10.00
2022-12-31T20:30:58.467Z,9.17
2022-12-31T20:33:25.099Z,10.33
2022-12-31T20:35:51.630Z,10.58
2022-12-31T20:38:18.179Z,10.57
2022-12-31T20:40:46.885Z,10.60
2022-12-31T20:43:14.080Z,10.60
2022-12-31T20:45:40.934Z,10.60
2022-12-31T20:48:08.937Z,10.61
2022-12-31T20:50:36.000Z,10.63
2022-12-31T20:53:02.600Z,10.63
2022-12-31T20:55:30.700Z,10.27
2022-12-31T20:57:57.545Z,9.34
2022-12-31T21:00:24.092Z,9.80
2022-12-31T21:02:58.993Z,10.44
2022-12-31T21:05:32.046Z,10.58
2022-12-31T21:07:58.749Z,10.04
2022-12-31T21:10:25.349Z,10.51
2022-12-31T21:12:54.645Z,10.53
2022-12-31T21:15:21.740Z,10.58
2022-12-31T21:17:48.504Z,10.62
2022-12-31T21:20:15.068Z,10.25
2022-12-31T21:22:42.959Z,10.50
2022-12-31T21:25:10.701Z,10.59
2022-12-31T21:27:37.236Z,10.60
2022-12-31T21:30:20.444Z,8.96
2022-12-31T21:32:47.268Z,10.31
2022-12-31T21:38:02.058Z,10.57
2022-12-31T21:40:28.638Z,10.59
2022-12-31T21:42:55.252Z,10.40
2022-12-31T21:45:21.767Z,10.59
2022-12-31T21:48:07.086Z,10.60
2022-12-31T21:50:34.074Z,7.59
2022-12-31T21:53:02.037Z,8.73
2022-12-31T21:55:47.144Z,10.00
2022-12-31T21:58:30.663Z,10.28
2022-12-31T22:01:17.015Z,10.45
2022-12-31T22:03:43.914Z,8.85
2022-12-31T22:06:13.518Z,9.85
2022-12-31T22:08:43.188Z,10.36
2022-12-31T22:11:09.943Z,10.44
2022-12-31T22:13:36.910Z,8.98
2022-12-31T22:16:05.931Z,8.15
2022-12-31T22:18:34.905Z,7.80
2022-12-31T22:21:03.468Z,9.02
2022-12-31T22:23:31.009Z,9.36
2022-12-31T22:25:58.990Z,10.12
2022-12-31T22:28:40.824Z,10.28
2022-12-31T22:31:08.833Z,9.34
2022-12-31T22:33:35.465Z,6.34
2022-12-31T22:36:05.014Z,8.84
2022-12-31T22:38:32.513Z,8.66
2022-12-31T22:41:06.049Z,9.01
2022-12-31T22:43:33.374Z,9.60
2022-12-31T22:46:06.520Z,10.06
2022-12-31T22:48:33.104Z,10.07
2022-12-31T22:50:59.653Z,9.87
2022-12-31T22:53:26.220Z,9.79
2022-12-31T22:55:53.862Z,9.74
2022-12-31T22:58:21.937Z,9.56
2022-12-31T23:00:49.189Z,10.07
2022-12-31T23:03:16.409Z,10.16
2022-12-31T23:05:43.394Z,7.49
2022-12-31T23:08:18.718Z,9.10
2022-12-31T23:10:59.661Z,9.76
2022-12-31T23:13:50.871Z,8.22
2022-12-31T23:16:36.703Z,9.87
2022-12-31T23:19:22.049Z,10.09
2022-12-31T23:22:07.319Z,6.84
2022-12-31T23:24:34.043Z,8.90
2022-12-31T23:27:00.598Z,9.59
2022-12-31T23:29:28.490Z,6.96
2022-12-31T23:31:55.070Z,9.13
2022-12-31T23:34:21.877Z,9.63
2022-12-31T23:36:48.405Z,9.30
2022-12-31T23:39:14.973Z,9.56
2022-12-31T23:41:41.581Z,9.79
2022-12-31T23:44:08.235Z,7.05
2022-12-31T23:46:36.111Z,9.40
2022-12-31T23:49:02.690Z,8.76
2022-12-31T23:51:29.281Z,6.86
2022-12-31T23:53:55.874Z,9.30
2022-12-31T23:56:23.990Z,9.66
2022-12-31T23:58:53.755Z,6.82
